createdAt,value
2022-12-03T00:02:23.845Z,33.03
2022-12-03T00:05:27.094Z,32.50
2022-12-03T00:08:29.755Z,32.55
2022-12-03T00:11:32.500Z,32.60
2022-12-03T00:14:36.882Z,31.25
2022-12-03T00:17:41.374Z,31.97
2022-12-03T00:20:43.892Z,31.20
2022-12-03T00:23:46.466Z,31.70
2022-12-03T00:26:48.929Z,31.60
2022-12-03T00:29:51.411Z,33.25
2022-12-03T00:32:53.920Z,32.83
2022-12-03T00:35:56.467Z,32.28
2022-12-03T00:38:58.883Z,35.37
2022-12-03T00:42:01.442Z,33.50
2022-12-03T00:45:04.260Z,35.97
2022-12-03T00:48:06.870Z,35.97
2022-12-03T00:51:09.591Z,37.58
2022-12-03T00:54:12.075Z,35.05
2022-12-03T00:57:14.647Z,35.10
2022-12-03T01:00:17.759Z,35.50
2022-12-03T01:03:20.365Z,35.90
2022-12-03T01:06:23.068Z,37.33
2022-12-03T01:09:25.537Z,35.67
2022-12-03T01:12:27.968Z,35.05
2022-12-03T01:15:30.352Z,34.85
2022-12-03T01:18:33.090Z,35.90
2022-12-03T01:21:35.577Z,36.37
2022-12-03T01:24:38.040Z,36.35
2022-12-03T01:27:40.588Z,36.65
2022-12-03T01:31:01.904Z,37.58
2022-12-03T01:34:04.980Z,38.47
2022-12-03T01:37:07.341Z,41.28
2022-12-03T01:40:16.203Z,40.72
2022-12-03T01:43:18.984Z,37.08
2022-12-03T01:46:25.177Z,33.43
2022-12-03T01:49:33.446Z,32.75
2022-12-03T01:52:38.896Z,32.53
2022-12-03T01:55:48.317Z,32.93
2022-12-03T01:58:51.142Z,30.17
2022-12-03T02:01:53.647Z,29.67
2022-12-03T02:04:57.304Z,27.42
2022-12-03T02:08:01.263Z,26.07
2022-12-03T02:11:17.488Z,25.23
2022-12-03T02:14:21.856Z,26.67
2022-12-03T02:17:25.454Z,26.73
2022-12-03T02:20:28.112Z,27.47
2022-12-03T02:23:57.526Z,32.67
2022-12-03T02:26:59.941Z,33.00
2022-12-03T02:30:02.552Z,31.27
2022-12-03T02:33:05.891Z,29.53
2022-12-03T02:36:09.104Z,25.70
2022-12-03T02:39:11.576Z,24.58
2022-12-03T02:42:32.554Z,23.48
2022-12-03T02:45:48.432Z,21.07
2022-12-03T02:48:50.944Z,20.92
2022-12-03T02:51:53.644Z,17.63
2022-12-03T02:54:56.361Z,17.27
2022-12-03T02:57:58.948Z,17.57
2022-12-03T03:01:03.834Z,18.40
2022-12-03T03:04:06.957Z,18.67
2022-12-03T03:07:09.802Z,18.47
2022-12-03T03:10:15.373Z,17.25
2022-12-03T03:13:19.432Z,19.95
2022-12-03T03:16:21.974Z,21.25
2022-12-03T03:19:26.365Z,18.85
2022-12-03T03:22:38.420Z,19.25
2022-12-03T03:25:44.209Z,18.67
2022-12-03T03:28:50.490Z,18.90
2022-12-03T03:31:54.456Z,16.77
2022-12-03T03:34:57.118Z,17.52
2022-12-03T03:37:59.889Z,15.75
2022-12-03T03:41:05.667Z,15.83
2022-12-03T03:44:09.442Z,17.35
2022-12-03T03:47:12.420Z,17.95
2022-12-03T03:50:16.412Z,17.70
2022-12-03T03:53:21.089Z,17.60
2022-12-03T03:56:23.658Z,17.17
2022-12-03T03:59:26.458Z,17.80
2022-12-03T04:02:28.966Z,18.15
2022-12-03T04:05:31.787Z,17.97
2022-12-03T04:08:34.631Z,18.15
2022-12-03T04:11:55.551Z,19.05
2022-12-03T04:14:58.584Z,22.23
2022-12-03T04:18:19.652Z,20.45
2022-12-03T04:21:41.984Z,19.98
2022-12-03T04:24:44.356Z,19.42
2022-12-03T04:28:05.642Z,19.40
2022-12-03T04:31:29.524Z,19.30
2022-12-03T04:34:50.938Z,18.13
2022-12-03T04:37:53.569Z,17.65
2022-12-03T04:41:02.038Z,18.73
2022-12-03T04:44:23.122Z,18.15
2022-12-03T04:47:25.585Z,19.30
2022-12-03T04:50:28.250Z,19.65
2022-12-03T04:53:30.638Z,20.80
2022-12-03T04:56:33.087Z,20.55
2022-12-03T04:59:36.361Z,20.55
2022-12-03T05:02:39.155Z,18.80
2022-12-03T05:05:41.938Z,19.02
2022-12-03T05:08:44.560Z,19.23
2022-12-03T05:11:47.318Z,18.42
2022-12-03T05:14:49.729Z,18.87
2022-12-03T05:17:52.491Z,19.02
2022-12-03T05:20:55.149Z,19.13
2022-12-03T05:23:57.884Z,19.38
2022-12-03T05:27:00.334Z,19.13
2022-12-03T05:30:02.885Z,20.80
2022-12-03T05:33:05.417Z,21.52
2022-12-03T05:36:08.134Z,23.85
2022-12-03T05:39:10.594Z,24.77
2022-12-03T05:42:31.625Z,22.80
2022-12-03T05:45:37.416Z,23.55
2022-12-03T05:48:48.423Z,23.20
2022-12-03T05:51:56.671Z,25.92
2022-12-03T05:55:01.030Z,26.17
2022-12-03T05:58:04.990Z,27.48
2022-12-03T06:01:07.536Z,25.03
2022-12-03T06:04:10.294Z,29.63
2022-12-03T06:07:14.266Z,33.70
2022-12-03T06:10:20.853Z,31.73
2022-12-03T06:13:23.623Z,37.00
2022-12-03T06:16:26.170Z,29.65
2022-12-03T06:19:28.765Z,25.83
2022-12-03T06:22:31.302Z,25.73
2022-12-03T06:25:33.724Z,29.10
2022-12-03T06:28:36.197Z,29.70
2022-12-03T06:31:38.892Z,41.07
2022-12-03T06:34:41.754Z,38.85
2022-12-03T06:37:44.221Z,44.03
2022-12-03T06:40:46.652Z,41.33
2022-12-03T06:43:49.120Z,44.20
2022-12-03T06:46:51.882Z,40.08
2022-12-03T06:49:54.475Z,40.92
2022-12-03T06:52:57.022Z,44.17
2022-12-03T06:56:00.063Z,51.28
2022-12-03T06:59:02.660Z,42.60
2022-12-03T07:02:05.514Z,33.70
2022-12-03T07:05:08.547Z,37.17
2022-12-03T07:08:11.126Z,58.72
2022-12-03T07:11:31.866Z,72.13
2022-12-03T07:14:34.585Z,59.77
2022-12-03T07:17:37.317Z,58.17
2022-12-03T07:20:39.705Z,58.30
2022-12-03T07:23:42.268Z,51.30
2022-12-03T07:26:45.044Z,50.67
2022-12-03T07:29:47.481Z,45.08
2022-12-03T07:32:50.403Z,41.75
2022-12-03T07:35:52.812Z,42.33
2022-12-03T07:38:55.279Z,38.47
2022-12-03T07:41:57.843Z,36.33
2022-12-03T07:45:00.341Z,36.67
2022-12-03T07:48:02.859Z,37.22
2022-12-03T07:51:05.624Z,36.38
2022-12-03T07:54:08.161Z,33.75
2022-12-03T07:57:10.877Z,30.98
2022-12-03T08:00:14.718Z,32.42
2022-12-03T08:03:17.155Z,24.88
2022-12-03T08:06:20.848Z,23.83
2022-12-03T08:09:23.539Z,26.15
2022-12-03T08:12:40.430Z,30.45
2022-12-03T08:15:43.433Z,23.65
2022-12-03T08:18:47.286Z,24.27
2022-12-03T08:21:49.855Z,25.75
2022-12-03T08:24:52.529Z,26.17
2022-12-03T08:28:00.334Z,30.52
2022-12-03T08:31:20.174Z,29.63
2022-12-03T08:34:26.564Z,20.75
2022-12-03T08:37:29.962Z,21.40
2022-12-03T08:40:37.440Z,20.23
2022-12-03T08:43:42.874Z,23.95
2022-12-03T08:46:45.472Z,23.35
2022-12-03T08:50:03.341Z,23.38
2022-12-03T08:53:18.777Z,20.93
2022-12-03T08:56:30.458Z,21.40
2022-12-03T08:59:32.887Z,19.92
2022-12-03T09:02:35.684Z,20.70
2022-12-03T09:05:38.115Z,18.90
2022-12-03T09:08:40.583Z,19.05
2022-12-03T09:11:43.514Z,21.30
2022-12-03T09:14:46.019Z,23.20
2022-12-03T09:17:48.992Z,23.93
2022-12-03T09:20:51.549Z,26.88
2022-12-03T09:23:54.004Z,26.40
2022-12-03T09:26:56.617Z,24.90
2022-12-03T09:29:59.138Z,24.37
2022-12-03T09:33:01.844Z,24.98
2022-12-03T09:36:04.997Z,23.55
2022-12-03T09:39:07.756Z,21.48
2022-12-03T09:42:11.380Z,20.40
2022-12-03T09:45:16.033Z,19.50
2022-12-03T09:48:20.734Z,16.83
2022-12-03T09:51:30.327Z,16.80
2022-12-03T09:54:34.502Z,16.27
2022-12-03T09:57:37.021Z,16.73
2022-12-03T10:00:41.268Z,16.88
2022-12-03T10:03:49.664Z,16.93
2022-12-03T10:06:52.344Z,16.57
2022-12-03T10:09:54.988Z,15.98
2022-12-03T10:12:57.843Z,15.15
2022-12-03T10:16:01.088Z,16.07
2022-12-03T10:19:03.585Z,17.37
2022-12-03T10:22:06.795Z,18.45
2022-12-03T10:25:09.553Z,18.45
2022-12-03T10:28:12.285Z,18.57
2022-12-03T10:31:15.607Z,17.80
2022-12-03T10:34:47.618Z,18.80
2022-12-03T10:38:00.915Z,18.55
2022-12-03T10:41:20.921Z,16.48
2022-12-03T10:44:30.550Z,17.17
2022-12-03T10:47:33.100Z,17.70
2022-12-03T10:50:36.196Z,18.20
2022-12-03T10:53:40.943Z,18.15
2022-12-03T10:56:44.617Z,18.93
2022-12-03T10:59:47.565Z,18.55
2022-12-03T11:02:56.760Z,19.52
2022-12-03T11:06:06.139Z,18.92
2022-12-03T11:09:21.070Z,18.13
2022-12-03T11:12:27.740Z,18.55
2022-12-03T11:15:45.583Z,17.40
2022-12-03T11:18:51.087Z,18.90
2022-12-03T11:22:05.725Z,18.17
2022-12-03T11:25:29.077Z,16.87
2022-12-03T11:28:32.796Z,12.93
2022-12-03T11:31:48.567Z,15.90
2022-12-03T11:34:51.313Z,16.17
2022-12-03T11:37:54.203Z,17.93
2022-12-03T11:41:12.090Z,16.42
2022-12-03T11:44:32.187Z,15.70
2022-12-03T11:47:58.026Z,16.08
2022-12-03T11:51:00.544Z,15.70
2022-12-03T11:54:03.118Z,16.37
2022-12-03T11:57:25.567Z,15.38
2022-12-03T12:00:28.656Z,17.35
2022-12-03T12:03:49.767Z,16.83
2022-12-03T12:06:53.603Z,17.47
2022-12-03T12:09:57.395Z,17.13
2022-12-03T12:13:00.435Z,18.35
2022-12-03T12:16:07.486Z,17.85
2022-12-03T12:19:29.251Z,16.27
2022-12-03T12:22:31.927Z,16.93
2022-12-03T12:25:38.314Z,16.90
2022-12-03T12:28:41.125Z,16.20
2022-12-03T12:31:44.359Z,16.45
2022-12-03T12:34:53.833Z,15.45
2022-12-03T12:38:16.582Z,15.10
2022-12-03T12:41:19.112Z,16.53
2022-12-03T12:44:23.666Z,15.95
2022-12-03T12:47:26.297Z,12.80
2022-12-03T12:50:31.421Z,11.73
2022-12-03T12:53:35.608Z,12.40
2022-12-03T12:56:39.194Z,12.60
2022-12-03T12:59:41.984Z,11.60
2022-12-03T13:02:58.503Z,11.77
2022-12-03T13:06:01.988Z,12.57
2022-12-03T13:09:14.621Z,13.10
2022-12-03T13:12:23.130Z,13.60
2022-12-03T13:15:39.250Z,12.88
2022-12-03T13:18:49.137Z,12.85
2022-12-03T13:21:54.458Z,13.70
2022-12-03T13:24:58.669Z,13.50
2022-12-03T13:28:01.228Z,15.60
2022-12-03T13:31:22.035Z,22.80
2022-12-03T13:34:27.289Z,20.75
2022-12-03T13:37:31.463Z,20.07
2022-12-03T13:40:36.632Z,17.90
2022-12-03T13:43:44.515Z,18.88
2022-12-03T13:46:47.675Z,20.50
2022-12-03T13:50:03.986Z,22.80
2022-12-03T13:53:48.039Z,25.30
2022-12-03T13:56:50.912Z,24.03
2022-12-03T13:59:53.901Z,26.08
2022-12-03T14:02:56.891Z,26.20
2022-12-03T14:05:59.420Z,28.83
2022-12-03T14:09:01.924Z,29.77
2022-12-03T14:12:23.067Z,27.17
2022-12-03T14:15:26.516Z,27.48
2022-12-03T14:18:29.163Z,28.38
2022-12-03T14:21:31.917Z,28.13
2022-12-03T14:24:34.510Z,25.70
2022-12-03T14:27:37.216Z,25.50
2022-12-03T14:30:39.636Z,24.88
2022-12-03T14:33:42.289Z,27.05
2022-12-03T14:36:44.746Z,24.77
2022-12-03T14:39:47.432Z,29.00
2022-12-03T14:42:50.133Z,26.07
2022-12-03T14:45:52.966Z,26.00
2022-12-03T14:48:56.683Z,32.00
2022-12-03T14:51:59.965Z,39.30
2022-12-03T14:55:02.500Z,44.70
2022-12-03T14:58:05.238Z,40.25
2022-12-03T15:01:07.873Z,42.33
2022-12-03T15:04:10.784Z,53.55
2022-12-03T15:07:13.280Z,68.37
2022-12-03T15:10:16.902Z,64.17
2022-12-03T15:13:19.340Z,86.15
2022-12-03T15:16:22.019Z,84.90
2022-12-03T15:19:24.898Z,71.07
2022-12-03T15:22:27.636Z,69.03
2022-12-03T15:25:30.732Z,75.65
2022-12-03T15:28:33.786Z,75.60
2022-12-03T15:31:36.291Z,52.47
2022-12-03T15:34:39.692Z,57.47
2022-12-03T15:37:42.445Z,63.00
2022-12-03T15:40:45.499Z,29.60
2022-12-03T15:43:52.724Z,45.80
2022-12-03T15:46:55.220Z,39.63
2022-12-03T15:49:57.728Z,52.83
2022-12-03T15:53:00.232Z,23.02
2022-12-03T15:56:02.885Z,34.35
2022-12-03T15:59:05.560Z,39.00
2022-12-03T16:02:08.138Z,38.75
2022-12-03T16:05:12.780Z,34.60
2022-12-03T16:08:15.563Z,34.00
2022-12-03T16:11:19.062Z,37.33
2022-12-03T16:14:21.504Z,39.55
2022-12-03T16:17:24.369Z,40.10
2022-12-03T16:20:27.292Z,68.97
2022-12-03T16:23:29.900Z,67.53
2022-12-03T16:26:32.650Z,73.75
2022-12-03T16:29:35.466Z,68.57
2022-12-03T16:32:38.032Z,56.27
2022-12-03T16:35:40.539Z,54.08
2022-12-03T16:38:43.286Z,71.47
2022-12-03T16:41:45.960Z,64.28
2022-12-03T16:45:08.796Z,59.63
2022-12-03T16:48:11.231Z,57.00
2022-12-03T16:51:14.108Z,49.80
2022-12-03T16:54:16.772Z,59.10
2022-12-03T16:57:19.176Z,53.00
2022-12-03T17:00:22.040Z,51.15
2022-12-03T17:03:28.962Z,45.53
2022-12-03T17:06:36.492Z,50.13
2022-12-03T17:09:39.002Z,60.33
2022-12-03T17:13:08.330Z,53.35
2022-12-03T17:16:06.839Z,44.00
2022-12-03T17:19:09.513Z,50.55
2022-12-03T17:22:12.111Z,48.70
2022-12-03T17:25:14.777Z,62.03
2022-12-03T17:28:17.234Z,46.67
2022-12-03T17:31:20.384Z,36.70
2022-12-03T17:34:22.819Z,35.65
2022-12-03T17:37:25.301Z,119.32
2022-12-03T17:40:28.127Z,61.78
2022-12-03T17:43:30.906Z,59.28
2022-12-03T17:46:33.462Z,51.60
2022-12-03T17:49:36.095Z,43.53
2022-12-03T17:52:38.832Z,47.78
2022-12-03T17:55:44.769Z,45.00
2022-12-03T17:58:48.090Z,48.03
2022-12-03T18:01:50.627Z,59.95
2022-12-03T18:04:53.173Z,107.65
2022-12-03T18:07:55.721Z,152.13
2022-12-03T18:10:58.345Z,158.37
2022-12-03T18:14:01.511Z,105.10
2022-12-03T18:17:04.038Z,84.30
2022-12-03T18:20:08.647Z,92.55
2022-12-03T18:23:12.055Z,86.40
2022-12-03T18:26:14.938Z,105.88
2022-12-03T18:29:17.962Z,89.47
2022-12-03T18:32:28.743Z,91.63
2022-12-03T18:35:32.349Z,88.67
2022-12-03T18:38:35.031Z,80.28
2022-12-03T18:41:37.704Z,80.07
2022-12-03T18:44:42.742Z,63.25
2022-12-03T18:47:49.371Z,52.53
2022-12-03T18:50:52.195Z,54.65
2022-12-03T18:53:54.963Z,67.03
2022-12-03T18:56:57.671Z,66.40
2022-12-03T19:00:00.366Z,70.22
2022-12-03T19:03:04.369Z,57.38
2022-12-03T19:06:17.186Z,81.00
2022-12-03T19:09:22.085Z,98.00
2022-12-03T19:12:25.457Z,86.40
2022-12-03T19:15:28.218Z,90.75
2022-12-03T19:18:31.245Z,88.68
2022-12-03T19:21:34.340Z,83.13
2022-12-03T19:24:37.184Z,71.45
2022-12-03T19:27:42.272Z,70.03
2022-12-03T19:30:56.094Z,62.45
2022-12-03T19:34:01.086Z,62.30
2022-12-03T19:37:07.529Z,54.55
2022-12-03T19:40:10.491Z,68.55
2022-12-03T19:43:13.623Z,73.35
2022-12-03T19:46:17.041Z,76.67
2022-12-03T19:49:21.366Z,96.22
2022-12-03T19:52:24.173Z,80.30
2022-12-03T19:55:26.887Z,72.40
2022-12-03T19:58:29.991Z,70.03
2022-12-03T20:01:35.351Z,60.25
2022-12-03T20:04:38.478Z,60.53
2022-12-03T20:07:41.233Z,51.95
2022-12-03T20:10:43.784Z,57.72
2022-12-03T20:13:53.713Z,53.30
2022-12-03T20:16:56.344Z,62.30
2022-12-03T20:19:59.489Z,62.00
2022-12-03T20:23:02.298Z,57.47
2022-12-03T20:26:10.562Z,64.55
2022-12-03T20:29:13.941Z,63.30
2022-12-03T20:32:16.809Z,64.32
2022-12-03T20:35:19.570Z,61.55
2022-12-03T20:38:23.813Z,63.35
2022-12-03T20:41:27.800Z,58.90
2022-12-03T20:44:30.179Z,49.22
2022-12-03T20:47:32.843Z,48.47
2022-12-03T20:50:38.535Z,53.20
2022-12-03T20:53:43.170Z,55.97
2022-12-03T20:56:45.791Z,63.67
2022-12-03T20:59:48.745Z,68.83
2022-12-03T21:02:52.277Z,81.05
2022-12-03T21:06:01.419Z,85.45
2022-12-03T21:09:06.295Z,84.95
2022-12-03T21:12:09.062Z,81.47
2022-12-03T21:15:11.895Z,81.80
2022-12-03T21:18:16.611Z,86.60
2022-12-03T21:21:19.775Z,109.03
2022-12-03T21:24:22.534Z,97.20
2022-12-03T21:27:25.008Z,107.32
2022-12-03T21:30:27.940Z,93.32
2022-12-03T21:33:31.333Z,88.63
2022-12-03T21:36:34.264Z,86.00
2022-12-03T21:39:36.970Z,60.92
2022-12-03T21:42:39.608Z,58.73
2022-12-03T21:45:42.901Z,62.45
2022-12-03T21:48:45.716Z,48.22
2022-12-03T21:51:48.375Z,42.70
2022-12-03T21:54:54.419Z,53.33
2022-12-03T21:57:57.058Z,45.88
2022-12-03T22:00:59.594Z,39.42
2022-12-03T22:04:02.041Z,47.13
2022-12-03T22:07:06.780Z,45.92
2022-12-03T22:10:11.820Z,48.15
2022-12-03T22:13:14.683Z,47.25
2022-12-03T22:16:22.007Z,49.10
2022-12-03T22:19:25.620Z,48.30
2022-12-03T22:22:28.122Z,56.15
2022-12-03T22:25:30.692Z,62.67
2022-12-03T22:28:34.224Z,54.60
2022-12-03T22:31:36.884Z,66.88
2022-12-03T22:34:41.248Z,57.85
2022-12-03T22:37:43.743Z,53.70
2022-12-03T22:40:47.153Z,47.95
2022-12-03T22:43:50.030Z,48.80
2022-12-03T22:46:52.593Z,51.28
2022-12-03T22:49:57.466Z,51.28
2022-12-03T22:53:00.028Z,50.42
2022-12-03T22:56:02.520Z,52.72
2022-12-03T22:59:05.592Z,54.10
2022-12-03T23:02:08.052Z,64.72
2022-12-03T23:05:10.445Z,52.83
2022-12-03T23:08:16.857Z,38.37
2022-12-03T23:11:20.019Z,39.85
2022-12-03T23:14:22.515Z,48.45
2022-12-03T23:17:24.983Z,55.28
2022-12-03T23:20:28.242Z,41.53
2022-12-03T23:23:30.679Z,54.45
2022-12-03T23:26:38.128Z,64.35
2022-12-03T23:29:40.687Z,50.47
2022-12-03T23:32:44.495Z,50.50
2022-12-03T23:35:47.056Z,35.05
2022-12-03T23:38:50.077Z,32.97
2022-12-03T23:41:52.903Z,39.10
2022-12-03T23:44:55.372Z,42.60
2022-12-03T23:47:58.477Z,48.70
2022-12-03T23:51:22.545Z,45.05
2022-12-03T23:54:24.986Z,49.33
2022-12-03T23:57:27.600Z,45.63
